Time;durP1;ratioP1;P1;durP2;ratioP2;P2;SDS_P1;SDS_P2;PMS_P1;PMS_P2;Temp;Humidity;BMP_temperature;BMP_pressure;BME280_temperature;BME280_humidity;BME280_pressure;Samples;Min_cycle;Max_cycle;Signal;HPM_P1;HPM_P2
2023/12/06 00:01:31;;;;;;;43.53;25.50;;;0.50;99.90;;;;;;4806424;29;94288;-31
2023/12/06 00:03:57;;;;;;;44.13;23.10;;;0.50;99.90;;;;;;4806767;29;92159;-32
2023/12/06 00:06:24;;;;;;;48.05;26.13;;;0.50;99.90;;;;;;4806616;29;91945;-30
2023/12/06 00:08:52;;;;;;;35.40;23.13;;;0.50;99.90;;;;;;4806402;29;93843;-30
2023/12/06 00:11:18;;;;;;;42.00;24.95;;;0.50;99.90;;;;;;4806000;29;94529;-30
2023/12/06 00:13:44;;;;;;;37.42;22.52;;;0.50;99.90;;;;;;4806789;29;95261;-32
2023/12/06 00:16:09;;;;;;;40.00;24.40;;;0.50;99.90;;;;;;4805770;29;94601;-31
2023/12/06 00:18:35;;;;;;;48.92;26.60;;;0.50;99.90;;;;;;4806499;29;95013;-31
2023/12/06 00:21:00;;;;;;;46.13;23.73;;;0.50;99.90;;;;;;4805768;29;94516;-31
2023/12/06 00:23:26;;;;;;;44.63;25.13;;;0.50;99.90;;;;;;4806684;29;92152;-33
2023/12/06 00:25:52;;;;;;;45.88;25.58;;;0.50;99.90;;;;;;4806275;29;94393;-30
2023/12/06 00:28:17;;;;;;;45.20;24.83;;;0.50;99.90;;;;;;4805993;29;94763;-32
2023/12/06 00:30:43;;;;;;;39.70;24.63;;;0.50;99.90;;;;;;4806768;29;94304;-29
2023/12/06 00:33:08;;;;;;;35.25;21.05;;;0.50;99.90;;;;;;4805143;29;93624;-29
2023/12/06 00:35:34;;;;;;;41.65;26.45;;;0.50;99.90;;;;;;4806448;29;93573;-31
2023/12/06 00:37:59;;;;;;;39.90;24.48;;;0.50;99.90;;;;;;4805409;29;96211;-30
2023/12/06 00:40:25;;;;;;;40.53;22.67;;;0.50;99.90;;;;;;4805925;29;96172;-30
2023/12/06 00:42:51;;;;;;;42.50;24.27;;;0.50;99.90;;;;;;4806398;29;93844;-30
2023/12/06 00:45:16;;;;;;;47.90;26.13;;;0.50;99.90;;;;;;4805397;29;94548;-30
2023/12/06 00:47:42;;;;;;;39.58;23.48;;;0.50;99.90;;;;;;4806155;29;94835;-29
2023/12/06 00:50:08;;;;;;;39.45;26.50;;;0.50;99.90;;;;;;4805628;29;94625;-30
2023/12/06 00:52:33;;;;;;;43.08;23.85;;;0.50;99.90;;;;;;4806584;29;92201;-29
2023/12/06 00:54:59;;;;;;;39.30;23.70;;;0.50;99.90;;;;;;4805502;29;94179;-30
2023/12/06 00:57:24;;;;;;;40.65;24.10;;;0.50;99.90;;;;;;4805643;29;94813;-33
2023/12/06 00:59:50;;;;;;;33.28;23.02;;;0.50;99.90;;;;;;4805330;29;94894;-29
2023/12/06 01:02:16;;;;;;;45.95;23.80;;;0.50;99.90;;;;;;4805245;29;93642;-33
2023/12/06 01:04:41;;;;;;;35.53;23.17;;;0.50;99.90;;;;;;4805985;29;93604;-31
2023/12/06 01:07:07;;;;;;;37.53;24.35;;;0.50;99.90;;;;;;4804928;29;95544;-29
2023/12/06 01:09:32;;;;;;;45.45;25.15;;;0.50;99.90;;;;;;4805739;29;95428;-32
2023/12/06 01:11:58;;;;;;;40.05;23.40;;;0.50;99.90;;;;;;4805691;29;92694;-31
2023/12/06 01:14:24;;;;;;;44.22;23.15;;;0.50;99.90;;;;;;4805059;29;93111;-32
2023/12/06 01:16:50;;;;;;;42.10;24.67;;;0.50;99.90;;;;;;4805331;29;94692;-29
2023/12/06 01:19:16;;;;;;;45.45;23.05;;;0.50;99.90;;;;;;4804975;29;94676;-30
2023/12/06 01:21:42;;;;;;;38.28;25.42;;;0.50;99.90;;;;;;4805528;29;92209;-31
2023/12/06 01:24:08;;;;;;;44.42;25.13;;;0.50;99.90;;;;;;4805009;29;92280;-33
2023/12/06 01:26:34;;;;;;;36.10;23.45;;;0.50;99.90;;;;;;4814248;29;95590;-30
2023/12/06 01:29:03;;;;;;;42.53;26.80;;;0.50;99.90;;;;;;4805483;29;97003;-30
2023/12/06 01:31:29;;;;;;;40.95;23.15;;;0.50;99.90;;;;;;4805068;29;93472;-32
2023/12/06 01:33:55;;;;;;;50.10;25.27;;;0.60;99.90;;;;;;4804422;29;92998;-30
2023/12/06 01:36:20;;;;;;;38.90;23.92;;;0.50;99.90;;;;;;4805929;29;94620;-33
2023/12/06 01:38:46;;;;;;;39.22;23.85;;;0.50;99.90;;;;;;4804109;29;95070;-32
2023/12/06 01:41:12;;;;;;;43.28;23.80;;;0.50;99.90;;;;;;4805276;29;94594;-34
2023/12/06 01:43:42;;;;;;;35.10;21.45;;;0.60;99.90;;;;;;4805821;29;93699;-30
2023/12/06 01:46:08;;;;;;;41.83;22.60;;;0.60;99.90;;;;;;4805158;29;97981;-30
2023/12/06 01:48:34;;;;;;;44.35;23.70;;;0.60;99.90;;;;;;4804621;29;94765;-31
2023/12/06 01:51:00;;;;;;;38.17;22.58;;;0.60;99.90;;;;;;4805256;29;96001;-32
2023/12/06 01:53:26;;;;;;;38.45;22.63;;;0.60;99.90;;;;;;4804702;29;93603;-31
2023/12/06 01:55:51;;;;;;;35.72;23.83;;;0.60;99.90;;;;;;4805020;29;94628;-31
2023/12/06 01:58:18;;;;;;;44.20;24.23;;;0.60;99.90;;;;;;4804856;29;96455;-29
2023/12/06 02:00:45;;;;;;;39.88;26.02;;;0.60;99.90;;;;;;4804970;29;94129;-30
2023/12/06 02:03:11;;;;;;;40.25;22.75;;;0.60;99.90;;;;;;4804811;29;94034;-29
2023/12/06 02:05:36;;;;;;;39.45;22.30;;;0.60;99.90;;;;;;4804910;29;94691;-32
2023/12/06 02:08:04;;;;;;;39.33;23.10;;;0.60;99.90;;;;;;4818862;29;94774;-31
2023/12/06 02:10:29;;;;;;;42.03;23.63;;;0.60;99.90;;;;;;4805526;29;93478;-30
2023/12/06 02:12:55;;;;;;;36.20;22.95;;;0.60;99.90;;;;;;4804493;29;93440;-31
2023/12/06 02:15:21;;;;;;;41.20;25.23;;;0.60;99.90;;;;;;4804096;29;95971;-32
2023/12/06 02:17:49;;;;;;;38.85;23.27;;;0.60;99.90;;;;;;4804005;29;95218;-29
2023/12/06 02:20:15;;;;;;;42.80;22.83;;;0.60;99.90;;;;;;4804504;29;92581;-31
2023/12/06 02:22:41;;;;;;;40.63;22.13;;;0.60;99.90;;;;;;4803727;29;93306;-29
2023/12/06 02:25:14;;;;;;;36.33;21.17;;;0.60;99.90;;;;;;4804791;29;95175;-30
2023/12/06 02:27:44;;;;;;;39.35;20.45;;;0.60;99.90;;;;;;4804050;29;94277;-33
2023/12/06 02:30:10;;;;;;;40.33;25.17;;;0.60;99.90;;;;;;4804453;29;94499;-34
2023/12/06 02:32:37;;;;;;;34.95;20.92;;;0.60;99.90;;;;;;4804259;29;94147;-32
2023/12/06 02:35:10;;;;;;;35.55;20.92;;;0.60;99.90;;;;;;4805260;29;93747;-31
2023/12/06 02:37:39;;;;;;;42.28;22.45;;;0.60;99.90;;;;;;4804289;29;94574;-32
2023/12/06 02:40:09;;;;;;;37.35;21.80;;;0.60;99.90;;;;;;4804454;29;93019;-30
2023/12/06 02:42:35;;;;;;;38.97;21.63;;;0.60;99.90;;;;;;4804904;29;94484;-31
2023/12/06 02:45:01;;;;;;;42.80;22.00;;;0.60;99.90;;;;;;4803872;29;94618;-34
2023/12/06 02:47:27;;;;;;;37.95;20.38;;;0.60;99.90;;;;;;4804110;29;93853;-29
2023/12/06 02:49:53;;;;;;;43.22;23.17;;;0.60;99.90;;;;;;4804461;29;92873;-34
2023/12/06 02:52:18;;;;;;;39.97;21.55;;;0.70;99.90;;;;;;4803413;29;92989;-30
2023/12/06 02:54:44;;;;;;;37.30;20.88;;;0.70;99.90;;;;;;4804798;29;94561;-30
2023/12/06 02:57:09;;;;;;;40.45;23.52;;;0.60;99.90;;;;;;4803607;29;94451;-30
2023/12/06 02:59:35;;;;;;;36.90;22.38;;;0.70;99.90;;;;;;4804749;29;93588;-30
2023/12/06 03:02:00;;;;;;;37.10;21.92;;;0.60;99.90;;;;;;4803162;29;93302;-30
2023/12/06 03:04:26;;;;;;;34.90;21.10;;;0.60;99.90;;;;;;4803739;29;95900;-29
2023/12/06 03:06:51;;;;;;;38.58;22.30;;;0.70;99.90;;;;;;4803865;29;95614;-30
2023/12/06 03:09:17;;;;;;;40.08;22.20;;;0.70;99.90;;;;;;4803874;29;92200;-29
2023/12/06 03:11:43;;;;;;;34.70;21.42;;;0.70;99.90;;;;;;4804095;29;92521;-31
2023/12/06 03:14:08;;;;;;;38.22;22.30;;;0.70;99.90;;;;;;4803515;29;94634;-34
2023/12/06 03:16:34;;;;;;;33.95;20.10;;;0.70;99.90;;;;;;4803647;29;94414;-30
2023/12/06 03:19:01;;;;;;;35.25;22.35;;;0.70;99.90;;;;;;4803883;29;93379;-32
2023/12/06 03:21:27;;;;;;;37.93;21.37;;;0.70;99.90;;;;;;4804658;29;93613;-30
2023/12/06 03:23:52;;;;;;;40.17;20.92;;;0.70;99.90;;;;;;4803921;29;95450;-32
2023/12/06 03:26:18;;;;;;;41.05;23.30;;;0.70;99.90;;;;;;4803063;29;94625;-30
2023/12/06 03:28:44;;;;;;;37.72;23.08;;;0.70;99.90;;;;;;4803670;29;93114;-30
2023/12/06 03:31:09;;;;;;;33.80;21.92;;;0.70;99.90;;;;;;4803299;29;94472;-32
2023/12/06 03:33:35;;;;;;;36.80;20.77;;;0.70;99.90;;;;;;4803327;29;94561;-34
2023/12/06 03:36:00;;;;;;;39.90;23.13;;;0.70;99.90;;;;;;4803531;29;94497;-31
2023/12/06 03:38:26;;;;;;;45.75;22.60;;;0.70;99.90;;;;;;4803865;29;93492;-31
2023/12/06 03:40:51;;;;;;;41.15;23.83;;;0.70;99.90;;;;;;4804200;29;95162;-30
2023/12/06 03:43:17;;;;;;;39.28;24.08;;;0.70;99.90;;;;;;4803418;29;94785;-31
2023/12/06 03:45:43;;;;;;;40.95;23.20;;;0.70;99.90;;;;;;4804285;29;95560;-30
2023/12/06 03:48:09;;;;;;;39.08;22.63;;;0.70;99.90;;;;;;4803175;29;92894;-30
2023/12/06 03:50:34;;;;;;;39.30;20.25;;;0.70;99.90;;;;;;4802769;29;94441;-33
2023/12/06 03:53:00;;;;;;;47.20;25.90;;;0.70;99.90;;;;;;4802848;29;95703;-28
2023/12/06 03:55:25;;;;;;;43.50;26.10;;;0.70;99.90;;;;;;4803163;29;95429;-30
2023/12/06 03:57:51;;;;;;;30.73;18.52;;;0.70;99.90;;;;;;4804013;29;93273;-30
2023/12/06 04:00:17;;;;;;;44.67;24.80;;;0.70;99.90;;;;;;4802663;29;94865;-31
2023/12/06 04:02:42;;;;;;;34.10;22.60;;;0.70;99.90;;;;;;4803352;29;94330;-32
2023/12/06 04:05:08;;;;;;;37.72;21.17;;;0.70;99.90;;;;;;4801481;29;94129;-31
2023/12/06 04:07:34;;;;;;;36.72;22.15;;;0.80;99.90;;;;;;4803726;29;92573;-30
2023/12/06 04:10:00;;;;;;;40.30;23.48;;;0.70;99.90;;;;;;4803722;29;91939;-32
2023/12/06 04:12:26;;;;;;;42.33;24.50;;;0.70;99.90;;;;;;4802457;29;94484;-30
2023/12/06 04:14:53;;;;;;;39.25;21.98;;;0.70;99.90;;;;;;4802832;29;94031;-34
2023/12/06 04:17:19;;;;;;;40.42;20.55;;;0.70;99.90;;;;;;4803811;29;95420;-30
2023/12/06 04:19:45;;;;;;;47.63;22.27;;;0.80;99.90;;;;;;4802920;29;92240;-33
2023/12/06 04:22:10;;;;;;;35.95;21.20;;;0.70;99.90;;;;;;4803293;29;94316;-29
2023/12/06 04:24:39;;;;;;;30.15;20.55;;;0.80;99.90;;;;;;4802721;29;96167;-33
2023/12/06 04:27:04;;;;;;;29.77;18.65;;;0.70;99.90;;;;;;4802657;29;92208;-32
2023/12/06 04:29:31;;;;;;;34.40;20.95;;;0.80;99.90;;;;;;4803353;29;93449;-29
2023/12/06 04:31:56;;;;;;;32.28;17.42;;;0.80;99.90;;;;;;4802347;29;94911;-30
2023/12/06 04:34:22;;;;;;;32.47;18.83;;;0.70;99.90;;;;;;4803328;29;93317;-31
2023/12/06 04:36:48;;;;;;;34.30;19.10;;;0.80;99.90;;;;;;4803440;29;94270;-29
2023/12/06 04:39:13;;;;;;;33.55;19.65;;;0.80;99.90;;;;;;4802436;29;92215;-29
2023/12/06 04:41:39;;;;;;;29.00;18.98;;;0.70;99.90;;;;;;4803701;29;94891;-32
2023/12/06 04:44:04;;;;;;;34.70;18.10;;;0.80;99.90;;;;;;4805410;29;95913;-33
2023/12/06 04:46:30;;;;;;;36.00;20.85;;;0.70;99.90;;;;;;4806341;29;94573;-32
2023/12/06 04:48:56;;;;;;;26.13;17.05;;;0.70;99.90;;;;;;4805158;29;93369;-30
2023/12/06 04:51:21;;;;;;;30.75;17.25;;;0.80;99.90;;;;;;4805623;29;94820;-32
2023/12/06 04:53:47;;;;;;;29.23;18.45;;;0.70;99.90;;;;;;4806643;29;94783;-30
2023/12/06 04:56:13;;;;;;;33.60;17.40;;;0.70;99.90;;;;;;4806326;29;93895;-31
2023/12/06 04:58:39;;;;;;;26.55;16.25;;;0.70;99.90;;;;;;4806441;29;92973;-31
2023/12/06 05:01:04;;;;;;;26.75;17.33;;;0.70;99.90;;;;;;4805622;29;94421;-31
2023/12/06 05:03:30;;;;;;;26.60;16.73;;;0.70;99.90;;;;;;4804333;29;94294;-31
2023/12/06 05:05:56;;;;;;;28.02;18.75;;;0.70;99.90;;;;;;4805699;29;95553;-30
2023/12/06 05:08:22;;;;;;;31.65;16.90;;;0.70;99.90;;;;;;4818935;29;94396;-28
2023/12/06 05:10:47;;;;;;;36.67;19.40;;;0.70;99.90;;;;;;4806482;29;95136;-32
2023/12/06 05:13:14;;;;;;;29.05;17.33;;;0.80;99.90;;;;;;4805438;29;95605;-31
2023/12/06 05:15:39;;;;;;;19.88;14.48;;;0.80;99.90;;;;;;4805897;29;93351;-30
2023/12/06 05:18:05;;;;;;;23.42;15.25;;;0.80;99.90;;;;;;4805332;29;93829;-31
2023/12/06 05:20:30;;;;;;;25.10;14.95;;;0.70;99.90;;;;;;4804901;29;95211;-30
2023/12/06 05:22:56;;;;;;;27.30;14.05;;;0.80;99.90;;;;;;4805367;29;94309;-32
2023/12/06 05:25:22;;;;;;;23.10;14.30;;;0.70;99.90;;;;;;4805711;29;92830;-30
2023/12/06 05:27:47;;;;;;;27.85;16.85;;;0.70;99.90;;;;;;4805327;29;93834;-30
2023/12/06 05:30:13;;;;;;;21.50;12.88;;;0.80;99.90;;;;;;4804630;29;95562;-29
2023/12/06 05:32:39;;;;;;;31.70;15.63;;;0.80;99.90;;;;;;4804470;29;95299;-30
2023/12/06 05:35:05;;;;;;;19.10;14.25;;;0.80;99.90;;;;;;4805761;29;94544;-32
2023/12/06 05:37:31;;;;;;;25.08;15.35;;;0.70;99.90;;;;;;4805190;29;93203;-31
2023/12/06 05:39:56;;;;;;;26.10;16.45;;;0.80;99.90;;;;;;4805275;29;95022;-32
2023/12/06 05:42:22;;;;;;;21.52;14.05;;;0.80;99.90;;;;;;4804990;29;94314;-29
2023/12/06 05:44:48;;;;;;;22.33;14.15;;;0.70;99.90;;;;;;4805749;29;93195;-29
2023/12/06 05:47:13;;;;;;;26.42;16.38;;;0.80;99.90;;;;;;4805697;29;93225;-30
2023/12/06 05:49:40;;;;;;;21.48;14.20;;;0.70;99.90;;;;;;4804861;29;94666;-30
2023/12/06 05:52:06;;;;;;;26.30;15.40;;;0.80;99.90;;;;;;4804558;29;94240;-29
2023/12/06 05:54:31;;;;;;;20.73;12.73;;;0.80;99.90;;;;;;4803931;29;94339;-30
2023/12/06 05:56:58;;;;;;;19.85;14.10;;;0.80;99.90;;;;;;4804340;29;93006;-30
2023/12/06 05:59:24;;;;;;;20.98;14.18;;;0.80;99.90;;;;;;4805829;29;94828;-29
2023/12/06 06:01:49;;;;;;;22.23;13.98;;;0.80;99.90;;;;;;4804366;29;94509;-33
2023/12/06 06:04:15;;;;;;;23.15;15.52;;;0.80;99.90;;;;;;4804872;29;93577;-30
2023/12/06 06:06:41;;;;;;;33.75;16.80;;;0.80;99.90;;;;;;4804910;29;94341;-32
2023/12/06 06:09:07;;;;;;;23.83;15.02;;;0.80;99.90;;;;;;4804386;29;94674;-35
2023/12/06 06:11:32;;;;;;;29.05;17.55;;;0.80;99.90;;;;;;4805077;29;94171;-32
2023/12/06 06:13:58;;;;;;;20.45;14.55;;;0.80;99.90;;;;;;4804639;29;93924;-29
2023/12/06 06:16:23;;;;;;;25.27;16.33;;;0.80;99.90;;;;;;4805110;29;93044;-30
2023/12/06 06:18:49;;;;;;;25.95;15.90;;;0.80;99.90;;;;;;4803922;29;96053;-32
2023/12/06 06:21:15;;;;;;;22.35;15.77;;;0.80;99.90;;;;;;4804008;29;95050;-33
2023/12/06 06:23:41;;;;;;;27.73;16.30;;;0.80;99.90;;;;;;4805358;29;94476;-33
2023/12/06 06:26:09;;;;;;;25.00;15.57;;;0.80;99.90;;;;;;4802176;29;93379;-31
2023/12/06 06:28:34;;;;;;;21.35;14.50;;;0.80;99.90;;;;;;4793779;29;94732;-33
2023/12/06 06:31:00;;;;;;;27.25;16.48;;;0.80;99.90;;;;;;4801774;29;94566;-31
2023/12/06 06:33:26;;;;;;;29.15;17.15;;;0.80;99.90;;;;;;4803935;29;92615;-30
2023/12/06 06:35:51;;;;;;;23.83;14.32;;;0.80;99.90;;;;;;4805265;29;93622;-31
2023/12/06 06:38:17;;;;;;;25.55;16.30;;;0.80;99.90;;;;;;4803346;29;94853;-29
2023/12/06 06:40:42;;;;;;;29.38;17.00;;;0.80;99.90;;;;;;4804496;29;94588;-32
2023/12/06 06:43:08;;;;;;;24.00;14.75;;;0.80;99.90;;;;;;4803516;29;95254;-30
2023/12/06 06:45:33;;;;;;;26.88;16.10;;;0.80;99.90;;;;;;4804763;29;94446;-34
2023/12/06 06:47:59;;;;;;;21.77;15.77;;;0.80;99.90;;;;;;4803872;29;94605;-31
2023/12/06 06:50:25;;;;;;;23.23;15.23;;;0.80;99.90;;;;;;4802460;29;94402;-32
2023/12/06 06:52:51;;;;;;;20.55;15.10;;;0.80;99.90;;;;;;4804902;29;94497;-32
2023/12/06 06:55:16;;;;;;;28.42;17.35;;;0.80;99.90;;;;;;4803601;29;92164;-32
2023/12/06 06:57:42;;;;;;;22.60;15.90;;;0.80;99.90;;;;;;4804024;29;94950;-31
2023/12/06 07:00:10;;;;;;;23.15;15.25;;;0.80;99.90;;;;;;4804140;29;95485;-30
2023/12/06 07:02:35;;;;;;;24.80;15.02;;;0.80;99.90;;;;;;4803697;29;93749;-30
2023/12/06 07:05:01;;;;;;;24.83;15.63;;;0.80;99.90;;;;;;4803374;29;94252;-31
2023/12/06 07:07:27;;;;;;;24.70;15.07;;;0.90;99.90;;;;;;4803426;29;95878;-31
2023/12/06 07:09:52;;;;;;;21.00;14.18;;;0.80;99.90;;;;;;4803428;29;95916;-32
2023/12/06 07:12:20;;;;;;;20.40;14.40;;;0.80;99.90;;;;;;4804434;29;94375;-29
2023/12/06 07:14:46;;;;;;;27.90;16.67;;;0.90;99.90;;;;;;4803193;29;93654;-31
2023/12/06 07:17:11;;;;;;;20.98;13.98;;;0.80;99.90;;;;;;4803875;29;94818;-28
2023/12/06 07:19:37;;;;;;;16.85;12.38;;;0.90;99.90;;;;;;4803193;29;94611;-32
2023/12/06 07:22:02;;;;;;;23.40;15.20;;;0.90;99.90;;;;;;4804009;29;93120;-31
2023/12/06 07:24:28;;;;;;;22.65;14.32;;;0.90;99.90;;;;;;4802048;28;94266;-31
2023/12/06 07:26:53;;;;;;;21.30;15.30;;;0.90;99.90;;;;;;4799859;29;94638;-31
2023/12/06 07:29:19;;;;;;;26.80;15.35;;;0.90;99.90;;;;;;4803322;29;94663;-32
2023/12/06 07:31:45;;;;;;;22.48;14.10;;;0.90;99.90;;;;;;4849621;23;94134;-31
2023/12/06 07:34:10;;;;;;;26.33;14.43;;;0.90;99.90;;;;;;4878538;28;94674;-29
2023/12/06 07:36:36;;;;;;;18.00;13.23;;;0.90;99.90;;;;;;4878846;28;94600;-32
2023/12/06 07:39:02;;;;;;;20.63;15.88;;;0.90;99.90;;;;;;4878102;28;93250;-32
2023/12/06 07:41:28;;;;;;;23.27;13.45;;;0.90;99.90;;;;;;4879357;28;94034;-30
2023/12/06 07:43:53;;;;;;;24.42;13.57;;;0.90;99.90;;;;;;4878215;28;94299;-31
2023/12/06 07:46:19;;;;;;;24.27;13.48;;;1.00;99.90;;;;;;4879275;28;94261;-29
2023/12/06 07:48:44;;;;;;;22.13;14.90;;;1.00;99.90;;;;;;4878551;28;94971;-31
2023/12/06 07:51:11;;;;;;;19.73;14.52;;;1.00;99.90;;;;;;4877212;28;94983;-33
2023/12/06 07:53:36;;;;;;;21.67;13.45;;;1.00;99.90;;;;;;4878668;28;92176;-32
2023/12/06 07:56:02;;;;;;;32.33;15.82;;;1.00;99.90;;;;;;4877792;28;96196;-31
2023/12/06 07:58:30;;;;;;;20.45;12.63;;;1.00;99.90;;;;;;4878160;28;95604;-29
2023/12/06 08:00:58;;;;;;;23.65;13.23;;;1.00;99.90;;;;;;4877375;28;92785;-32
2023/12/06 08:03:26;;;;;;;24.95;13.95;;;1.00;99.90;;;;;;4877649;28;94631;-31
2023/12/06 08:05:52;;;;;;;25.60;17.02;;;1.00;99.90;;;;;;4877889;28;94434;-30
2023/12/06 08:08:18;;;;;;;23.30;14.43;;;1.00;99.90;;;;;;4878639;28;94541;-32
2023/12/06 08:10:44;;;;;;;25.83;14.60;;;1.10;99.90;;;;;;4878771;28;92219;-31
2023/12/06 08:13:10;;;;;;;22.35;14.35;;;1.00;99.90;;;;;;4878052;28;92122;-30
2023/12/06 08:15:35;;;;;;;25.30;15.57;;;1.10;99.90;;;;;;4877721;28;93885;-29
2023/12/06 08:18:01;;;;;;;21.15;14.98;;;1.10;99.90;;;;;;4880054;28;94399;-30
2023/12/06 08:20:26;;;;;;;22.50;13.60;;;1.10;99.90;;;;;;4881725;28;95476;-29
2023/12/06 08:22:53;;;;;;;23.70;15.38;;;1.10;99.90;;;;;;4881335;28;94296;-32
2023/12/06 08:25:19;;;;;;;20.80;15.30;;;1.10;99.90;;;;;;4880234;28;95058;-33
2023/12/06 08:27:44;;;;;;;17.73;14.35;;;1.10;99.90;;;;;;4880777;28;93934;-31
2023/12/06 08:30:11;;;;;;;23.02;15.55;;;1.10;99.90;;;;;;4881024;28;94214;-30
2023/12/06 08:32:37;;;;;;;21.92;12.85;;;1.10;99.90;;;;;;4880960;28;94457;-30
2023/12/06 08:35:02;;;;;;;20.73;13.05;;;1.10;99.90;;;;;;4880967;28;94806;-33
2023/12/06 08:37:28;;;;;;;24.17;15.00;;;1.10;99.90;;;;;;4880858;28;94528;-32
2023/12/06 08:39:54;;;;;;;23.20;14.18;;;1.10;99.90;;;;;;4881538;28;93237;-30
2023/12/06 08:42:19;;;;;;;20.83;14.32;;;1.20;99.90;;;;;;4880855;28;94540;-29
2023/12/06 08:44:45;;;;;;;22.00;13.93;;;1.20;99.90;;;;;;4880779;28;95763;-30
2023/12/06 08:47:11;;;;;;;55.22;16.08;;;1.20;99.90;;;;;;4880419;28;95464;-32
2023/12/06 08:49:38;;;;;;;23.38;16.23;;;1.20;99.90;;;;;;4881252;28;93564;-31
2023/12/06 08:52:05;;;;;;;23.60;16.00;;;1.20;99.90;;;;;;4881134;28;94343;-30
2023/12/06 08:54:30;;;;;;;20.33;15.18;;;1.20;99.90;;;;;;4880686;28;96666;-30
2023/12/06 08:56:56;;;;;;;24.92;15.55;;;1.20;99.90;;;;;;4880545;28;94617;-35
2023/12/06 08:59:22;;;;;;;20.10;13.40;;;1.20;99.90;;;;;;4881367;28;94642;-31
2023/12/06 09:01:47;;;;;;;19.00;13.55;;;1.20;99.90;;;;;;4880862;28;92271;-31
2023/12/06 09:04:13;;;;;;;22.25;14.20;;;1.20;99.90;;;;;;4880515;28;94724;-30
2023/12/06 09:06:38;;;;;;;23.35;15.10;;;1.20;99.90;;;;;;4880275;28;93452;-30
2023/12/06 09:09:05;;;;;;;18.52;13.40;;;1.30;99.90;;;;;;4880442;28;95460;-34
2023/12/06 09:11:31;;;;;;;21.60;14.80;;;1.30;99.90;;;;;;4880706;28;94689;-30
2023/12/06 09:13:57;;;;;;;23.70;13.50;;;1.30;99.90;;;;;;4880020;28;94413;-33
2023/12/06 09:16:22;;;;;;;24.15;14.82;;;1.30;99.90;;;;;;4881001;28;94784;-29
2023/12/06 09:18:48;;;;;;;20.10;12.73;;;1.30;99.90;;;;;;4880715;28;93024;-28
2023/12/06 09:21:13;;;;;;;21.27;13.95;;;1.30;99.90;;;;;;4880664;28;94139;-31
2023/12/06 09:23:40;;;;;;;20.40;13.25;;;1.30;99.90;;;;;;4879974;28;94178;-33
2023/12/06 09:26:05;;;;;;;19.95;12.63;;;1.30;99.90;;;;;;4880363;28;94895;-31
2023/12/06 09:28:31;;;;;;;24.13;14.70;;;1.30;99.90;;;;;;4880764;28;92152;-28
2023/12/06 09:30:56;;;;;;;16.02;11.60;;;1.40;99.90;;;;;;4879626;28;92591;-32
2023/12/06 09:33:22;;;;;;;21.40;15.77;;;1.30;99.90;;;;;;4879696;28;95597;-30
2023/12/06 09:35:48;;;;;;;19.63;11.57;;;1.30;99.90;;;;;;4879720;28;95620;-31
2023/12/06 09:38:13;;;;;;;25.98;12.32;;;1.30;99.90;;;;;;4881251;28;92972;-29
2023/12/06 09:40:39;;;;;;;21.67;12.95;;;1.40;99.90;;;;;;4877801;28;94218;-30
2023/12/06 09:43:05;;;;;;;21.30;15.02;;;1.40;99.90;;;;;;4877005;28;94767;-31
2023/12/06 09:45:31;;;;;;;27.65;14.60;;;1.40;99.90;;;;;;4877462;28;94430;-31
2023/12/06 09:47:57;;;;;;;20.70;14.05;;;1.40;99.90;;;;;;4877290;28;92304;-32
2023/12/06 09:50:25;;;;;;;20.90;14.00;;;1.40;99.90;;;;;;4877581;28;93876;-30
2023/12/06 09:52:51;;;;;;;21.35;13.30;;;1.50;99.90;;;;;;4877385;28;94671;-31
2023/12/06 09:55:22;;;;;;;16.40;12.60;;;1.50;99.90;;;;;;4876689;28;94147;-28
2023/12/06 09:57:49;;;;;;;21.73;12.35;;;1.50;99.90;;;;;;4875327;28;95719;-31
2023/12/06 10:00:14;;;;;;;15.40;10.77;;;1.50;99.90;;;;;;4877226;28;92888;-31
2023/12/06 10:02:49;;;;;;;22.48;14.38;;;1.50;99.90;;;;;;4878254;28;94952;-31
2023/12/06 10:05:15;;;;;;;18.30;13.02;;;1.50;99.90;;;;;;4876963;28;94291;-32
2023/12/06 10:07:40;;;;;;;24.48;15.75;;;1.60;99.90;;;;;;4877093;28;93475;-31
2023/12/06 10:10:14;;;;;;;20.10;12.13;;;1.60;99.90;;;;;;4875238;28;92997;-31
2023/12/06 10:12:52;;;;;;;20.63;13.30;;;1.70;99.90;;;;;;4877062;28;94967;-32
2023/12/06 10:15:19;;;;;;;20.83;13.10;;;1.70;99.90;;;;;;4877938;28;94934;-33
2023/12/06 10:17:46;;;;;;;18.67;12.40;;;1.70;99.90;;;;;;4877879;28;93118;-31
2023/12/06 10:20:13;;;;;;;20.83;12.93;;;1.70;99.90;;;;;;4864403;28;93107;-32
2023/12/06 10:22:39;;;;;;;21.23;13.18;;;1.70;99.90;;;;;;4877474;28;95585;-32
2023/12/06 10:25:08;;;;;;;20.13;12.48;;;1.80;99.90;;;;;;4876712;28;95400;-33
2023/12/06 10:27:37;;;;;;;19.23;13.73;;;1.80;99.90;;;;;;4876780;28;94749;-33
2023/12/06 10:30:05;;;;;;;23.23;12.75;;;1.70;99.90;;;;;;4877140;28;93044;-33
2023/12/06 10:32:31;;;;;;;19.17;10.82;;;1.80;99.90;;;;;;4875628;28;94747;-31
2023/12/06 10:35:09;;;;;;;18.42;12.90;;;1.80;99.90;;;;;;4877466;28;95287;-33
2023/12/06 10:37:35;;;;;;;22.10;13.38;;;1.80;99.90;;;;;;4877629;28;93083;-30
2023/12/06 10:40:09;;;;;;;21.38;12.55;;;1.80;99.90;;;;;;4876089;28;93669;-31
2023/12/06 10:42:36;;;;;;;17.50;10.82;;;1.80;99.90;;;;;;4876756;28;94120;-31
2023/12/06 10:45:04;;;;;;;18.67;12.50;;;1.80;99.90;;;;;;4876788;28;95015;-30
2023/12/06 10:47:30;;;;;;;18.27;11.75;;;1.80;99.90;;;;;;4876620;28;95645;-30
2023/12/06 10:49:56;;;;;;;20.60;12.48;;;1.80;99.90;;;;;;4876943;28;93683;-29
2023/12/06 10:52:23;;;;;;;20.10;12.70;;;1.80;99.90;;;;;;4877302;28;93021;-30
2023/12/06 10:54:50;;;;;;;19.05;12.85;;;1.90;99.90;;;;;;4875514;28;95308;-32
2023/12/06 10:57:17;;;;;;;19.75;13.73;;;1.90;99.90;;;;;;4876863;28;92363;-30
2023/12/06 10:59:43;;;;;;;19.80;12.13;;;1.90;99.90;;;;;;4877021;28;93302;-30
2023/12/06 11:02:12;;;;;;;22.63;11.50;;;1.90;99.90;;;;;;4864539;28;96676;-31
2023/12/06 11:04:51;;;;;;;19.80;13.02;;;1.90;99.90;;;;;;4876401;28;94755;-31
2023/12/06 11:07:41;;;;;;;17.55;11.15;;;1.90;99.90;;;;;;4876974;28;94595;-32
2023/12/06 11:10:37;;;;;;;18.77;11.07;;;1.90;99.90;;;;;;4875517;28;93149;-33
2023/12/06 11:13:30;;;;;;;19.23;11.90;;;1.90;99.90;;;;;;4875409;28;95676;-30
2023/12/06 11:16:14;;;;;;;20.45;11.95;;;2.00;99.90;;;;;;4876372;28;95467;-32
2023/12/06 11:18:45;;;;;;;16.15;10.52;;;2.00;99.90;;;;;;4876980;28;93139;-32
2023/12/06 11:21:13;;;;;;;15.15;10.82;;;2.00;99.90;;;;;;4869729;28;92648;-31
2023/12/06 11:23:40;;;;;;;17.38;11.20;;;2.00;99.90;;;;;;4873171;28;94385;-33
2023/12/06 11:26:05;;;;;;;14.68;9.43;;;2.10;99.90;;;;;;4875977;28;95647;-31
2023/12/06 11:28:40;;;;;;;16.02;12.38;;;2.10;99.90;;;;;;4877592;28;92139;-31
2023/12/06 11:31:06;;;;;;;15.68;9.18;;;2.10;99.90;;;;;;4876286;28;92319;-31
2023/12/06 11:33:32;;;;;;;17.73;11.82;;;2.20;99.90;;;;;;4876505;28;93442;-32
2023/12/06 11:35:58;;;;;;;16.23;10.40;;;2.20;99.90;;;;;;4875470;28;94425;-32
2023/12/06 11:38:34;;;;;;;13.25;10.45;;;2.20;99.90;;;;;;4876295;28;95355;-32
2023/12/06 11:41:01;;;;;;;14.68;10.93;;;2.20;99.90;;;;;;4876415;28;93019;-32
2023/12/06 11:43:30;;;;;;;17.88;11.80;;;2.20;99.90;;;;;;4875977;28;95361;-31
2023/12/06 11:46:05;;;;;;;15.85;10.70;;;2.30;99.90;;;;;;4863470;28;94532;-30
2023/12/06 11:48:34;;;;;;;15.88;11.57;;;2.30;99.90;;;;;;4876512;28;93929;-32
2023/12/06 11:51:03;;;;;;;14.40;10.40;;;2.30;99.90;;;;;;4877348;28;93130;-30
2023/12/06 11:53:30;;;;;;;15.45;10.77;;;2.30;99.90;;;;;;4879581;28;94467;-30
2023/12/06 11:55:56;;;;;;;23.73;13.68;;;2.30;99.90;;;;;;4879336;28;95881;-30
2023/12/06 11:58:28;;;;;;;18.63;12.35;;;2.30;99.90;;;;;;4879197;28;93041;-30
2023/12/06 12:00:54;;;;;;;22.95;12.70;;;2.30;99.90;;;;;;4878824;28;94785;-32
2023/12/06 12:03:20;;;;;;;15.23;11.30;;;2.30;99.90;;;;;;4877899;28;95670;-31
2023/12/06 12:05:46;;;;;;;17.30;14.57;;;2.30;99.90;;;;;;4879035;28;96243;-32
2023/12/06 12:08:13;;;;;;;16.73;11.80;;;2.40;99.90;;;;;;4878474;28;94211;-32
2023/12/06 12:10:43;;;;;;;15.57;11.32;;;2.40;99.90;;;;;;4879063;28;93453;-32
2023/12/06 12:13:18;;;;;;;18.02;12.65;;;2.40;99.90;;;;;;4878534;28;94856;-33
2023/12/06 12:15:53;;;;;;;17.35;11.18;;;2.40;99.90;;;;;;4879184;28;94372;-31
2023/12/06 12:18:19;;;;;;;10.95;9.52;;;2.40;99.90;;;;;;4879078;28;94512;-33
2023/12/06 12:20:45;;;;;;;15.93;12.63;;;2.40;99.90;;;;;;4879397;28;92308;-30
2023/12/06 12:23:11;;;;;;;18.52;10.85;;;2.50;99.90;;;;;;4877833;28;95037;-30
2023/12/06 12:25:46;;;;;;;19.48;10.30;;;2.50;99.90;;;;;;4878639;28;94985;-32
2023/12/06 12:28:11;;;;;;;15.25;10.43;;;2.50;99.90;;;;;;4877337;28;95714;-32
2023/12/06 12:30:37;;;;;;;15.90;10.48;;;2.50;99.90;;;;;;4877923;28;94339;-32
2023/12/06 12:33:03;;;;;;;17.17;10.43;;;2.50;99.90;;;;;;4878692;28;94869;-28
2023/12/06 12:35:29;;;;;;;16.55;11.32;;;2.50;99.90;;;;;;4877954;28;94817;-31